createdAt,value
2023-02-16T00:00:30.384Z,43.33
2023-02-16T00:02:57.488Z,41.08
2023-02-16T00:05:26.105Z,43.35
2023-02-16T00:07:54.786Z,43.67
2023-02-16T00:10:22.487Z,44.80
2023-02-16T00:13:07.957Z,44.92
2023-02-16T00:15:35.385Z,44.50
2023-02-16T00:18:04.643Z,45.72
2023-02-16T00:20:31.886Z,45.28
2023-02-16T00:22:59.057Z,45.60
2023-02-16T00:25:25.955Z,44.75
2023-02-16T00:27:53.027Z,45.25
2023-02-16T00:30:22.206Z,43.83
2023-02-16T00:32:49.566Z,45.60
2023-02-16T00:35:21.614Z,46.25
2023-02-16T00:37:49.399Z,45.38
2023-02-16T00:40:17.381Z,45.65
2023-02-16T00:42:47.020Z,45.00
2023-02-16T00:45:20.229Z,45.08
2023-02-16T00:47:50.995Z,45.08
2023-02-16T00:50:22.571Z,45.42
2023-02-16T00:52:49.736Z,45.70
2023-02-16T00:55:18.330Z,45.80
2023-02-16T00:57:54.164Z,45.03
2023-02-16T01:00:32.008Z,44.35
2023-02-16T01:03:02.171Z,44.90
2023-02-16T01:05:30.282Z,45.55
2023-02-16T01:08:16.586Z,45.85
2023-02-16T01:11:02.684Z,45.55
2023-02-16T01:13:40.189Z,45.25
2023-02-16T01:16:34.475Z,44.83
2023-02-16T01:19:01.316Z,46.53
2023-02-16T01:21:28.188Z,45.65
2023-02-16T01:23:55.162Z,46.03
2023-02-16T01:26:22.387Z,46.67
2023-02-16T01:28:49.397Z,45.90
2023-02-16T01:31:17.413Z,45.83
2023-02-16T01:33:44.536Z,45.92
2023-02-16T01:36:28.016Z,47.35
2023-02-16T01:38:54.847Z,44.15
2023-02-16T01:41:58.682Z,45.92
2023-02-16T01:44:29.789Z,44.03
2023-02-16T01:47:18.243Z,46.13
2023-02-16T01:49:45.104Z,43.88
2023-02-16T01:52:26.492Z,43.42
2023-02-16T01:55:05.236Z,43.80
2023-02-16T01:57:49.442Z,45.47
2023-02-16T02:00:58.522Z,43.50
2023-02-16T02:03:53.223Z,46.17
2023-02-16T02:06:33.230Z,44.35
2023-02-16T02:09:08.057Z,44.55
2023-02-16T02:11:49.988Z,44.20
2023-02-16T02:14:22.346Z,45.20
2023-02-16T02:17:02.361Z,44.17
2023-02-16T02:19:30.127Z,43.95
2023-02-16T02:22:35.698Z,43.60
2023-02-16T02:25:14.517Z,44.80
2023-02-16T02:27:47.626Z,42.20
2023-02-16T02:30:43.656Z,42.60
2023-02-16T02:33:21.297Z,43.42
2023-02-16T02:36:40.864Z,42.50
2023-02-16T02:39:25.495Z,42.53
2023-02-16T02:42:05.889Z,43.65
2023-02-16T02:45:10.007Z,41.90
2023-02-16T02:47:44.210Z,40.90
2023-02-16T02:50:41.594Z,40.78
2023-02-16T02:53:15.262Z,41.38
2023-02-16T02:56:07.810Z,41.83
2023-02-16T02:59:12.097Z,42.42
2023-02-16T03:01:42.112Z,40.67
2023-02-16T03:04:12.535Z,41.40
2023-02-16T03:06:44.971Z,41.65
2023-02-16T03:09:14.387Z,42.47
2023-02-16T03:12:01.189Z,42.25
2023-02-16T03:14:34.293Z,43.58
2023-02-16T03:17:39.507Z,43.17
2023-02-16T03:20:30.149Z,43.42
2023-02-16T03:23:16.918Z,42.42
2023-02-16T03:26:03.840Z,44.67
2023-02-16T03:28:51.711Z,42.35
2023-02-16T03:31:24.323Z,42.72
2023-02-16T03:33:54.676Z,43.47
2023-02-16T03:36:27.389Z,43.10
2023-02-16T03:38:55.896Z,42.83
2023-02-16T03:41:24.071Z,42.15
2023-02-16T03:43:51.269Z,42.03
2023-02-16T03:46:18.761Z,41.40
2023-02-16T03:48:45.752Z,41.65
2023-02-16T03:51:12.798Z,41.00
2023-02-16T03:53:39.917Z,41.80
2023-02-16T03:56:07.005Z,41.47
2023-02-16T03:58:34.328Z,39.08
2023-02-16T04:01:01.228Z,40.55
2023-02-16T04:03:28.273Z,41.05
2023-02-16T04:05:56.542Z,41.08
2023-02-16T04:08:23.657Z,40.75
2023-02-16T04:10:50.869Z,41.53
2023-02-16T04:13:17.679Z,39.42
2023-02-16T04:15:44.775Z,39.97
2023-02-16T04:18:12.334Z,38.88
2023-02-16T04:20:39.320Z,39.45
2023-02-16T04:23:06.378Z,39.17
2023-02-16T04:25:33.241Z,41.00
2023-02-16T04:28:00.123Z,39.63
2023-02-16T04:30:30.077Z,39.97
2023-02-16T04:32:58.861Z,40.10
2023-02-16T04:35:25.993Z,40.70
2023-02-16T04:37:53.079Z,39.53
2023-02-16T04:40:20.219Z,41.03
2023-02-16T04:42:47.481Z,39.85
2023-02-16T04:45:14.740Z,38.75
2023-02-16T04:47:42.151Z,39.72
2023-02-16T04:50:10.282Z,39.63
2023-02-16T04:52:39.012Z,38.67
2023-02-16T04:55:07.414Z,38.53
2023-02-16T04:57:34.381Z,38.60
2023-02-16T05:00:01.354Z,39.00
2023-02-16T05:02:28.373Z,39.75
2023-02-16T05:04:55.481Z,38.08
2023-02-16T05:07:22.529Z,38.92
2023-02-16T05:09:49.744Z,38.22
2023-02-16T05:12:35.208Z,39.33
2023-02-16T05:15:02.320Z,39.92
2023-02-16T05:17:29.186Z,37.58
2023-02-16T05:19:59.040Z,38.15
2023-02-16T05:22:26.628Z,39.22
2023-02-16T05:24:53.510Z,39.38
2023-02-16T05:27:23.181Z,39.28
2023-02-16T05:29:50.030Z,38.33
2023-02-16T05:32:17.810Z,39.40
2023-02-16T05:34:45.582Z,39.15
2023-02-16T05:37:14.090Z,36.85
2023-02-16T05:39:41.672Z,38.30
2023-02-16T05:42:08.993Z,39.22
2023-02-16T05:44:36.843Z,36.83
2023-02-16T05:47:04.142Z,37.20
2023-02-16T05:49:31.102Z,39.08
2023-02-16T05:51:58.279Z,38.92
2023-02-16T05:54:25.239Z,37.47
2023-02-16T05:56:52.905Z,37.85
2023-02-16T05:59:20.295Z,38.83
2023-02-16T06:01:51.290Z,37.20
2023-02-16T06:04:20.129Z,39.40
2023-02-16T06:06:47.481Z,36.67
2023-02-16T06:09:14.434Z,38.17
2023-02-16T06:11:43.971Z,36.72
2023-02-16T06:14:14.482Z,36.63
2023-02-16T06:16:44.452Z,37.25
2023-02-16T06:19:12.156Z,36.63
2023-02-16T06:21:43.649Z,37.53
2023-02-16T06:24:13.244Z,37.15
2023-02-16T06:26:40.539Z,37.95
2023-02-16T06:29:07.600Z,37.15
2023-02-16T06:31:36.382Z,37.88
2023-02-16T06:34:04.601Z,37.78
2023-02-16T06:36:32.179Z,36.25
2023-02-16T06:38:59.185Z,36.88
2023-02-16T06:41:32.176Z,35.65
2023-02-16T06:44:01.133Z,36.17
2023-02-16T06:46:28.642Z,35.72
2023-02-16T06:48:55.939Z,36.97
2023-02-16T06:51:23.093Z,36.78
2023-02-16T06:53:50.045Z,35.75
2023-02-16T06:56:16.921Z,36.50
2023-02-16T06:58:43.813Z,34.97
2023-02-16T07:01:11.001Z,36.47
2023-02-16T07:03:38.651Z,37.53
2023-02-16T07:06:06.188Z,38.28
2023-02-16T07:08:34.222Z,38.88
2023-02-16T07:11:02.010Z,37.38
2023-02-16T07:13:28.931Z,38.47
2023-02-16T07:15:55.920Z,37.38
2023-02-16T07:18:22.748Z,37.28
2023-02-16T07:20:49.772Z,37.75
2023-02-16T07:23:16.641Z,40.13
2023-02-16T07:25:43.663Z,39.40
2023-02-16T07:28:10.641Z,38.20
2023-02-16T07:30:37.630Z,40.72
2023-02-16T07:33:04.519Z,38.20
2023-02-16T07:35:31.296Z,38.25
2023-02-16T07:37:58.078Z,39.22
2023-02-16T07:40:25.622Z,37.97
2023-02-16T07:42:52.405Z,39.30
2023-02-16T07:45:19.542Z,39.60
2023-02-16T07:47:46.402Z,38.55
2023-02-16T07:50:13.218Z,37.60
2023-02-16T07:52:40.121Z,39.33
2023-02-16T07:55:07.104Z,38.85
2023-02-16T07:57:34.163Z,40.00
2023-02-16T08:00:01.039Z,39.13
2023-02-16T08:02:28.080Z,40.90
2023-02-16T08:04:55.374Z,38.45
2023-02-16T08:07:22.617Z,38.97
2023-02-16T08:09:49.757Z,40.25
2023-02-16T08:12:17.722Z,40.70
2023-02-16T08:14:46.648Z,38.40
2023-02-16T08:17:14.010Z,40.47
2023-02-16T08:19:41.500Z,40.33
2023-02-16T08:22:09.182Z,41.00
2023-02-16T08:24:37.428Z,40.35
2023-02-16T08:27:05.675Z,40.63
2023-02-16T08:29:33.652Z,40.85
2023-02-16T08:32:01.529Z,42.40
2023-02-16T08:34:30.217Z,42.83
2023-02-16T08:36:57.777Z,41.53
2023-02-16T08:39:27.808Z,40.53
2023-02-16T08:41:55.958Z,42.38
2023-02-16T08:44:25.167Z,40.72
2023-02-16T08:46:55.104Z,41.20
2023-02-16T08:49:23.874Z,41.53
2023-02-16T08:51:58.848Z,43.00
2023-02-16T08:54:30.335Z,41.63
2023-02-16T08:57:00.012Z,42.72
2023-02-16T08:59:28.869Z,41.40
2023-02-16T09:01:58.097Z,43.42
2023-02-16T09:04:29.320Z,43.30
2023-02-16T09:06:58.478Z,39.65
2023-02-16T09:09:26.472Z,38.92
2023-02-16T09:11:53.524Z,40.40
2023-02-16T09:14:23.054Z,40.88
2023-02-16T09:16:50.291Z,39.47
2023-02-16T09:19:20.743Z,38.97
2023-02-16T09:21:48.763Z,40.55
2023-02-16T09:24:16.076Z,39.85
2023-02-16T09:26:44.721Z,38.95
2023-02-16T09:29:12.951Z,40.03
2023-02-16T09:31:41.044Z,38.78
2023-02-16T09:34:13.254Z,38.78
2023-02-16T09:36:40.377Z,40.28
2023-02-16T09:39:08.185Z,39.00
2023-02-16T09:41:41.096Z,39.13
2023-02-16T09:44:40.994Z,39.28
2023-02-16T09:47:19.204Z,38.50
2023-02-16T09:49:46.954Z,37.15
2023-02-16T09:52:23.610Z,37.40
2023-02-16T09:54:59.557Z,36.30
2023-02-16T09:57:57.187Z,37.45
2023-02-16T10:00:50.929Z,37.88
2023-02-16T10:03:51.786Z,35.60
2023-02-16T10:06:28.806Z,36.72
2023-02-16T10:09:04.282Z,34.47
2023-02-16T10:11:54.466Z,35.92
2023-02-16T10:14:44.572Z,35.83
2023-02-16T10:17:47.094Z,35.78
2023-02-16T10:20:35.746Z,34.70
2023-02-16T10:23:15.649Z,35.55
2023-02-16T10:25:54.863Z,31.17
2023-02-16T10:28:52.659Z,33.90
2023-02-16T10:31:34.357Z,33.17
2023-02-16T10:34:06.943Z,32.13
2023-02-16T10:36:39.622Z,31.67
2023-02-16T10:39:40.171Z,33.35
2023-02-16T10:42:27.340Z,33.38
2023-02-16T10:45:45.284Z,32.15
2023-02-16T10:48:13.538Z,31.75
2023-02-16T10:51:06.599Z,33.13
2023-02-16T10:53:44.745Z,31.77
2023-02-16T10:56:40.760Z,30.17
2023-02-16T10:59:23.892Z,31.13
2023-02-16T11:01:57.620Z,30.35
2023-02-16T11:04:37.638Z,29.40
2023-02-16T11:07:16.926Z,31.00
2023-02-16T11:09:46.289Z,29.35
2023-02-16T11:12:25.013Z,29.88
2023-02-16T11:15:03.355Z,29.92
2023-02-16T11:17:32.770Z,28.42
2023-02-16T11:20:05.719Z,29.05
2023-02-16T11:22:39.520Z,30.50
2023-02-16T11:25:18.377Z,29.02
2023-02-16T11:27:57.157Z,27.95
2023-02-16T11:30:34.556Z,29.73
2023-02-16T11:33:04.627Z,26.92
2023-02-16T11:35:41.070Z,27.73
2023-02-16T11:38:28.473Z,28.80
2023-02-16T11:40:56.230Z,28.80
2023-02-16T11:43:28.498Z,28.23
2023-02-16T11:46:04.658Z,28.35
2023-02-16T11:48:33.429Z,27.17
2023-02-16T11:51:09.349Z,26.95
2023-02-16T11:53:42.317Z,26.80
2023-02-16T11:56:25.556Z,26.88
2023-02-16T11:59:17.302Z,25.98
2023-02-16T12:01:59.151Z,28.38
2023-02-16T12:04:51.443Z,26.67
2023-02-16T12:07:36.882Z,25.75
2023-02-16T12:10:12.269Z,26.08
2023-02-16T12:13:04.100Z,26.15
2023-02-16T12:15:45.069Z,26.13
2023-02-16T12:18:41.769Z,23.83
2023-02-16T12:21:23.964Z,23.90
2023-02-16T12:23:53.840Z,22.85
2023-02-16T12:26:35.893Z,20.35
2023-02-16T12:29:25.372Z,20.98
2023-02-16T12:31:58.012Z,20.95
2023-02-16T12:34:43.242Z,21.35
2023-02-16T12:37:32.245Z,21.45
2023-02-16T12:40:14.179Z,22.42
2023-02-16T12:43:07.029Z,19.75
2023-02-16T12:45:38.831Z,23.00
2023-02-16T12:48:28.044Z,22.83
2023-02-16T12:50:57.150Z,22.77
2023-02-16T12:53:41.988Z,22.67
2023-02-16T12:56:19.143Z,22.20
2023-02-16T12:58:53.516Z,23.13
2023-02-16T13:01:25.566Z,23.60
2023-02-16T13:03:58.652Z,22.30
2023-02-16T13:07:16.355Z,24.05
2023-02-16T13:10:10.475Z,24.90
2023-02-16T13:13:02.073Z,22.42
2023-02-16T13:15:37.163Z,22.48
2023-02-16T13:18:26.075Z,22.52
2023-02-16T13:21:02.268Z,21.65
2023-02-16T13:23:52.800Z,22.10
2023-02-16T13:26:38.534Z,21.30
2023-02-16T13:29:30.286Z,20.98
2023-02-16T13:32:17.339Z,21.80
2023-02-16T13:35:17.623Z,21.50
2023-02-16T13:38:12.174Z,21.75
2023-02-16T13:41:10.443Z,22.23
2023-02-16T13:43:42.472Z,21.13
2023-02-16T13:46:42.031Z,19.80
2023-02-16T13:49:42.421Z,21.58
2023-02-16T13:52:11.642Z,22.55
2023-02-16T13:54:43.718Z,22.60
2023-02-16T13:57:18.419Z,20.25
2023-02-16T13:59:56.523Z,22.40
2023-02-16T14:02:52.874Z,23.48
2023-02-16T14:05:29.558Z,21.77
2023-02-16T14:08:15.273Z,22.00
2023-02-16T14:10:55.209Z,22.42
2023-02-16T14:13:36.795Z,22.27
2023-02-16T14:16:18.771Z,21.48
2023-02-16T14:19:02.489Z,22.50
2023-02-16T14:21:47.411Z,23.45
2023-02-16T14:24:26.293Z,21.98
2023-02-16T14:27:01.890Z,21.13
2023-02-16T14:29:57.249Z,21.42
2023-02-16T14:32:34.255Z,20.48
2023-02-16T14:35:26.925Z,22.38
2023-02-16T14:38:08.090Z,21.23
2023-02-16T14:40:34.840Z,20.38
2023-02-16T14:43:12.942Z,19.58
2023-02-16T14:45:58.636Z,22.20
2023-02-16T14:48:37.763Z,23.55
2023-02-16T14:51:51.041Z,22.75
2023-02-16T14:54:30.941Z,23.45
2023-02-16T14:57:03.119Z,20.65
2023-02-16T14:59:42.520Z,20.42
2023-02-16T15:02:54.178Z,20.58
2023-02-16T15:05:24.908Z,18.92
2023-02-16T15:08:02.489Z,17.67
2023-02-16T15:10:30.500Z,17.50
2023-02-16T15:12:58.016Z,16.45
2023-02-16T15:15:41.346Z,16.25
2023-02-16T15:18:15.768Z,16.25
2023-02-16T15:20:46.903Z,15.85
2023-02-16T15:23:28.071Z,15.07
2023-02-16T15:25:59.590Z,14.88
2023-02-16T15:28:32.740Z,13.80
2023-02-16T15:31:05.905Z,14.65
2023-02-16T15:33:39.029Z,14.93
2023-02-16T15:36:18.043Z,14.80
2023-02-16T15:38:57.358Z,14.07
2023-02-16T15:41:33.485Z,14.20
2023-02-16T15:44:02.911Z,14.30
2023-02-16T15:46:37.375Z,12.65
2023-02-16T15:49:20.316Z,11.82
2023-02-16T15:51:48.520Z,11.48
2023-02-16T15:54:28.352Z,11.45
2023-02-16T15:57:00.115Z,11.05
2023-02-16T15:59:47.549Z,10.65
2023-02-16T16:02:40.424Z,10.43
2023-02-16T16:05:21.476Z,10.48
2023-02-16T16:07:48.927Z,10.98
2023-02-16T16:10:21.577Z,10.73
2023-02-16T16:12:50.781Z,10.07
2023-02-16T16:15:26.376Z,10.23
2023-02-16T16:17:55.128Z,9.57
2023-02-16T16:20:38.054Z,10.38
2023-02-16T16:23:27.092Z,10.00
2023-02-16T16:25:56.170Z,9.48
2023-02-16T16:28:28.761Z,8.98
2023-02-16T16:31:22.688Z,9.60
2023-02-16T16:33:58.770Z,9.63
2023-02-16T16:36:58.104Z,9.05
2023-02-16T16:39:33.759Z,11.65
2023-02-16T16:42:00.732Z,11.45
2023-02-16T16:44:36.948Z,10.18
2023-02-16T16:47:27.749Z,8.90
2023-02-16T16:50:05.585Z,9.10
2023-02-16T16:52:37.360Z,9.25
2023-02-16T16:55:19.885Z,9.60
2023-02-16T16:57:48.645Z,9.65
2023-02-16T17:00:16.924Z,10.10
2023-02-16T17:02:43.902Z,10.02
2023-02-16T17:05:11.786Z,10.45
2023-02-16T17:07:38.907Z,10.75
2023-02-16T17:10:07.530Z,11.13
2023-02-16T17:12:34.725Z,10.23
2023-02-16T17:15:02.660Z,9.13
2023-02-16T17:17:31.633Z,9.07
2023-02-16T17:19:58.513Z,9.60
2023-02-16T17:22:25.598Z,9.63
2023-02-16T17:24:52.548Z,7.50
2023-02-16T17:27:19.916Z,8.90
2023-02-16T17:29:46.864Z,8.30
2023-02-16T17:32:13.903Z,8.77
2023-02-16T17:34:40.883Z,8.20
2023-02-16T17:37:07.810Z,8.77
2023-02-16T17:39:35.979Z,8.90
2023-02-16T17:42:03.106Z,10.07
2023-02-16T17:44:29.974Z,9.45
2023-02-16T17:46:56.929Z,8.38
2023-02-16T17:49:23.820Z,10.25
2023-02-16T17:51:50.834Z,9.55
2023-02-16T17:54:17.753Z,9.45
2023-02-16T17:56:45.713Z,9.77
2023-02-16T17:59:17.552Z,9.65
2023-02-16T18:01:45.631Z,9.57
2023-02-16T18:04:12.992Z,9.13
2023-02-16T18:06:40.063Z,8.85
2023-02-16T18:09:07.955Z,8.15
2023-02-16T18:11:34.945Z,8.27
2023-02-16T18:14:01.757Z,8.50
2023-02-16T18:16:28.706Z,7.38
2023-02-16T18:18:57.366Z,8.60
2023-02-16T18:21:25.063Z,8.55
2023-02-16T18:23:52.144Z,7.78
2023-02-16T18:26:19.229Z,8.15
2023-02-16T18:28:46.337Z,8.10
2023-02-16T18:31:14.643Z,8.00
2023-02-16T18:33:41.814Z,8.13
2023-02-16T18:36:09.525Z,7.55
2023-02-16T18:38:36.508Z,7.53
2023-02-16T18:41:03.592Z,7.15
2023-02-16T18:43:31.371Z,7.25
2023-02-16T18:45:58.690Z,7.93
2023-02-16T18:48:25.733Z,7.60
2023-02-16T18:50:52.743Z,6.95
2023-02-16T18:53:19.704Z,7.63
2023-02-16T18:55:46.801Z,6.55
2023-02-16T18:58:14.899Z,7.25
2023-02-16T19:00:43.083Z,7.30
2023-02-16T19:03:10.670Z,6.55
2023-02-16T19:05:38.561Z,7.90
2023-02-16T19:08:05.855Z,7.15
2023-02-16T19:10:33.515Z,8.50
2023-02-16T19:13:01.932Z,7.75
2023-02-16T19:15:29.156Z,6.93
2023-02-16T19:17:56.260Z,7.05
2023-02-16T19:20:23.465Z,7.82
2023-02-16T19:22:50.712Z,7.45
2023-02-16T19:25:18.074Z,8.05
2023-02-16T19:27:45.203Z,7.82
2023-02-16T19:30:12.513Z,8.18
2023-02-16T19:32:41.206Z,7.93
2023-02-16T19:35:12.293Z,8.82
2023-02-16T19:37:39.657Z,8.32
2023-02-16T19:40:08.844Z,8.20
2023-02-16T19:42:36.128Z,8.38
2023-02-16T19:45:03.681Z,8.48
2023-02-16T19:47:30.971Z,8.25
2023-02-16T19:49:58.078Z,9.07
2023-02-16T19:52:25.162Z,9.25
2023-02-16T19:54:52.344Z,9.50
2023-02-16T19:57:19.534Z,8.80
2023-02-16T19:59:46.633Z,9.60
2023-02-16T20:02:15.587Z,9.15
2023-02-16T20:04:44.114Z,9.20
2023-02-16T20:07:12.227Z,10.00
2023-02-16T20:09:39.328Z,9.18
2023-02-16T20:12:07.124Z,9.45
2023-02-16T20:14:34.338Z,9.52
2023-02-16T20:17:01.510Z,9.98
2023-02-16T20:19:28.633Z,10.25
2023-02-16T20:21:55.499Z,10.27
2023-02-16T20:24:22.330Z,10.90
2023-02-16T20:26:51.302Z,8.23
2023-02-16T20:29:18.235Z,9.98
2023-02-16T20:31:57.360Z,9.77
2023-02-16T20:34:26.208Z,10.85
2023-02-16T20:36:54.176Z,9.27
2023-02-16T20:39:21.674Z,10.93
2023-02-16T20:41:48.782Z,10.25
2023-02-16T20:44:15.676Z,10.77
2023-02-16T20:46:43.140Z,10.10
2023-02-16T20:49:10.464Z,11.07
2023-02-16T20:51:38.326Z,10.02
2023-02-16T20:54:05.925Z,10.05
2023-02-16T20:56:33.106Z,10.38
2023-02-16T20:59:01.390Z,11.05
2023-02-16T21:01:28.201Z,9.82
2023-02-16T21:03:57.288Z,10.48
2023-02-16T21:06:26.905Z,9.73
2023-02-16T21:08:54.590Z,9.73
2023-02-16T21:11:22.116Z,9.93
2023-02-16T21:13:49.289Z,10.52
2023-02-16T21:16:16.409Z,10.48
2023-02-16T21:18:43.721Z,9.52
2023-02-16T21:21:15.343Z,9.10
2023-02-16T21:23:48.366Z,10.20
2023-02-16T21:26:16.363Z,8.95
2023-02-16T21:28:43.187Z,9.23
2023-02-16T21:31:12.525Z,9.65
2023-02-16T21:33:40.009Z,9.40
2023-02-16T21:36:10.849Z,9.93
2023-02-16T21:38:38.452Z,9.35
2023-02-16T21:41:24.487Z,9.00
2023-02-16T21:43:54.241Z,9.35
2023-02-16T21:46:22.174Z,9.57
2023-02-16T21:48:50.408Z,9.10
2023-02-16T21:51:24.364Z,8.55
2023-02-16T21:53:53.277Z,8.05
2023-02-16T21:56:29.197Z,7.10
2023-02-16T21:58:56.539Z,6.45
2023-02-16T22:01:31.744Z,5.50
2023-02-16T22:04:00.510Z,5.95
2023-02-16T22:06:32.323Z,5.00
2023-02-16T22:09:00.192Z,4.72
2023-02-16T22:11:27.621Z,4.60
2023-02-16T22:13:58.412Z,4.50
2023-02-16T22:16:29.612Z,4.53
2023-02-16T22:19:01.432Z,4.40
2023-02-16T22:21:28.861Z,4.50
2023-02-16T22:23:56.231Z,4.13
2023-02-16T22:26:28.876Z,3.90
2023-02-16T22:28:56.362Z,4.30
2023-02-16T22:31:26.109Z,4.40
2023-02-16T22:34:12.014Z,4.38
2023-02-16T22:36:40.197Z,4.40
2023-02-16T22:39:07.699Z,4.30
2023-02-16T22:41:35.228Z,4.10
2023-02-16T22:44:02.635Z,3.95
2023-02-16T22:46:30.664Z,3.67
2023-02-16T22:48:59.222Z,4.35
2023-02-16T22:51:30.336Z,3.95
2023-02-16T22:54:01.738Z,3.78
2023-02-16T22:56:30.053Z,3.08
2023-02-16T22:58:58.206Z,3.85
2023-02-16T23:01:27.082Z,3.90
2023-02-16T23:03:57.489Z,3.65
2023-02-16T23:06:36.971Z,4.10
2023-02-16T23:09:07.323Z,3.70
2023-02-16T23:11:35.503Z,3.20
2023-02-16T23:14:02.420Z,3.38
2023-02-16T23:16:29.746Z,2.83
2023-02-16T23:18:58.424Z,2.85
2023-02-16T23:21:33.020Z,2.88
2023-02-16T23:24:00.536Z,3.20
2023-02-16T23:26:30.423Z,3.15
2023-02-16T23:29:00.416Z,3.05
2023-02-16T23:31:30.666Z,3.13
2023-02-16T23:33:57.606Z,3.00
2023-02-16T23:36:24.593Z,3.17
2023-02-16T23:38:51.613Z,3.67
2023-02-16T23:41:19.000Z,3.40
2023-02-16T23:43:45.976Z,3.38
2023-02-16T23:46:13.101Z,3.35
2023-02-16T23:48:39.977Z,2.47
2023-02-16T23:51:06.944Z,2.33
2023-02-16T23:53:34.840Z,2.33
2023-02-16T23:56:05.314Z,2.38
2023-02-16T23:58:41.285Z,2.28
